createdAt,value
2024-03-02T00:01:04.000Z,91.713
2024-03-02T00:02:20.000Z,123.843
2024-03-02T00:03:36.000Z,71.949
2024-03-02T00:04:53.000Z,43.7
2024-03-02T00:06:08.000Z,107.843
2024-03-02T00:07:23.000Z,101.281
2024-03-02T00:08:39.000Z,117.387
2024-03-02T00:09:54.000Z,53.755
2024-03-02T00:11:09.000Z,107.444
2024-03-02T00:12:25.000Z,101.617
2024-03-02T00:13:42.000Z,135.492
2024-03-02T00:14:58.000Z,71.561
2024-03-02T00:16:13.000Z,133.809
2024-03-02T00:17:29.000Z,133.236
2024-03-02T00:18:44.000Z,79.937
2024-03-02T00:19:59.000Z,89.009
2024-03-02T00:21:14.000Z,82.417
2024-03-02T00:22:31.000Z,90.981
2024-03-02T00:23:48.000Z,44.246
2024-03-02T00:25:03.000Z,81.92
2024-03-02T00:26:18.000Z,103.33
2024-03-02T00:27:33.000Z,69.676
2024-03-02T00:28:49.000Z,111.928
2024-03-02T00:30:05.000Z,101.42
2024-03-02T00:31:22.000Z,86.391
2024-03-02T00:32:38.000Z,75.814
2024-03-02T00:33:53.000Z,80.486
2024-03-02T00:35:08.000Z,103.151
2024-03-02T00:36:24.000Z,132.067
2024-03-02T00:37:40.000Z,117.651
2024-03-02T00:38:56.000Z,101.258
2024-03-02T00:40:12.000Z,117.308
2024-03-02T00:41:28.000Z,107.141
2024-03-02T00:42:43.000Z,94.94
2024-03-02T00:43:58.000Z,112.804
2024-03-02T00:45:13.000Z,75.257
2024-03-02T00:46:29.000Z,75.224
2024-03-02T00:47:46.000Z,95.786
2024-03-02T00:49:03.000Z,91.653
2024-03-02T00:50:19.000Z,91.565
2024-03-02T00:51:34.000Z,85.932
2024-03-02T00:52:49.000Z,39.194
2024-03-02T00:54:05.000Z,54.95
2024-03-02T00:55:20.000Z,64.731
2024-03-02T00:56:36.000Z,117.82
2024-03-02T00:57:52.000Z,50.283
2024-03-02T00:59:08.000Z,60.631
2024-03-02T01:00:24.000Z,128.256
2024-03-02T01:01:39.000Z,81.353
2024-03-02T01:02:54.000Z,80.654
2024-03-02T01:04:09.000Z,53.786
2024-03-02T01:05:25.000Z,85.781
2024-03-02T01:06:42.000Z,103.383
2024-03-02T01:07:59.000Z,54.925
2024-03-02T01:09:14.000Z,121.872
2024-03-02T01:10:29.000Z,94.344
2024-03-02T01:11:45.000Z,80.955
2024-03-02T01:13:00.000Z,70.785
2024-03-02T01:14:16.000Z,75.463
2024-03-02T01:15:32.000Z,81.549
2024-03-02T01:16:49.000Z,75.16
2024-03-02T01:18:05.000Z,121.312
2024-03-02T01:19:20.000Z,79.901
2024-03-02T01:20:35.000Z,81.05
2024-03-02T01:21:50.000Z,114.62
2024-03-02T01:23:06.000Z,64.494
2024-03-02T01:24:22.000Z,97.413
2024-03-02T01:25:39.000Z,123.116
2024-03-02T01:26:54.000Z,149.541
2024-03-02T01:28:10.000Z,86.537
2024-03-02T01:29:25.000Z,74.478
2024-03-02T01:30:40.000Z,75.559
2024-03-02T01:31:56.000Z,44.087
2024-03-02T01:33:11.000Z,90.372
2024-03-02T01:34:27.000Z,50.0
2024-03-02T01:35:44.000Z,50.059
2024-03-02T01:36:59.000Z,55.222
2024-03-02T01:38:14.000Z,101.855
2024-03-02T01:39:30.000Z,114.079
2024-03-02T01:40:45.000Z,68.567
2024-03-02T01:42:00.000Z,74.851
2024-03-02T01:43:17.000Z,71.067
2024-03-02T01:44:33.000Z,54.925
2024-03-02T01:45:50.000Z,49.254
2024-03-02T01:47:05.000Z,54.742
2024-03-02T01:48:20.000Z,116.037
2024-03-02T01:49:35.000Z,69.921
2024-03-02T01:50:51.000Z,101.667
2024-03-02T01:52:07.000Z,75.042
2024-03-02T01:53:23.000Z,113.464
2024-03-02T01:54:39.000Z,95.797
2024-03-02T01:55:56.000Z,70.6
2024-03-02T01:57:12.000Z,82.407
2024-03-02T01:58:27.000Z,114.603
2024-03-02T01:59:42.000Z,102.347
2024-03-02T02:00:58.000Z,69.763
2024-03-02T02:02:14.000Z,59.732
2024-03-02T02:03:31.000Z,76.191
2024-03-02T02:04:46.000Z,64.166
2024-03-02T02:06:02.000Z,69.943
2024-03-02T02:07:17.000Z,69.438
2024-03-02T02:08:32.000Z,80.44
2024-03-02T02:09:48.000Z,132.917
2024-03-02T02:11:03.000Z,56.174
2024-03-02T02:12:20.000Z,96.216
2024-03-02T02:13:36.000Z,80.453
2024-03-02T02:14:51.000Z,132.742
2024-03-02T02:16:06.000Z,101.706
2024-03-02T02:17:22.000Z,75.763
2024-03-02T02:18:37.000Z,97.048
2024-03-02T02:19:53.000Z,91.653
2024-03-02T02:21:09.000Z,87.875
2024-03-02T02:22:25.000Z,65.658
2024-03-02T02:23:40.000Z,128.243
2024-03-02T02:24:55.000Z,65.116
2024-03-02T02:26:10.000Z,53.922
2024-03-02T02:27:26.000Z,86.951
2024-03-02T02:28:42.000Z,98.02
2024-03-02T02:29:58.000Z,65.131
2024-03-02T02:31:14.000Z,64.232
2024-03-02T02:32:29.000Z,53.786
2024-03-02T02:33:44.000Z,43.639
2024-03-02T02:35:01.000Z,65.554
2024-03-02T02:36:15.000Z,70.206
2024-03-02T02:37:31.000Z,101.051
2024-03-02T02:38:53.000Z,87.004
2024-03-02T02:40:09.000Z,95.377
2024-03-02T02:41:26.000Z,112.59
2024-03-02T02:42:41.000Z,106.902
2024-03-02T02:43:56.000Z,28.448
2024-03-02T02:45:11.000Z,105.933
2024-03-02T02:46:26.000Z,55.066
2024-03-02T02:47:42.000Z,76.927
2024-03-02T02:48:58.000Z,44.87
2024-03-02T02:50:15.000Z,69.482
2024-03-02T02:51:31.000Z,87.629
2024-03-02T02:52:46.000Z,97.054
2024-03-02T02:54:01.000Z,64.501
2024-03-02T02:55:17.000Z,55.89
2024-03-02T02:56:32.000Z,113.135
2024-03-02T02:57:49.000Z,114.687
2024-03-02T02:59:05.000Z,70.054
2024-03-02T03:00:21.000Z,85.384
2024-03-02T03:01:36.000Z,97.558
2024-03-02T03:02:51.000Z,70.326
2024-03-02T03:04:07.000Z,64.222
2024-03-02T03:05:22.000Z,75.313
2024-03-02T03:06:38.000Z,82.086
2024-03-02T03:07:54.000Z,106.242
2024-03-02T03:09:11.000Z,59.873
2024-03-02T03:10:26.000Z,84.391
2024-03-02T03:11:41.000Z,93.177
2024-03-02T03:12:56.000Z,75.934
2024-03-02T03:14:12.000Z,91.794
2024-03-02T03:15:28.000Z,111.557
2024-03-02T03:16:44.000Z,153.901
2024-03-02T03:18:00.000Z,64.686
2024-03-02T03:19:17.000Z,75.596
2024-03-02T03:20:32.000Z,112.529
2024-03-02T03:21:47.000Z,113.502
2024-03-02T03:23:02.000Z,148.958
2024-03-02T03:24:18.000Z,65.795
2024-03-02T03:25:34.000Z,66.324
2024-03-02T03:26:50.000Z,60.088
2024-03-02T03:28:06.000Z,69.673
2024-03-02T03:29:22.000Z,74.628
2024-03-02T03:30:37.000Z,102.656
2024-03-02T03:31:52.000Z,55.609
2024-03-02T03:33:07.000Z,60.703
2024-03-02T03:34:24.000Z,82.337
2024-03-02T03:35:40.000Z,75.306
2024-03-02T03:36:56.000Z,60.856
2024-03-02T03:38:11.000Z,80.617
2024-03-02T03:39:27.000Z,77.628
2024-03-02T03:40:42.000Z,103.876
2024-03-02T03:41:57.000Z,85.196
2024-03-02T03:43:14.000Z,97.224
2024-03-02T03:44:31.000Z,76.096
2024-03-02T03:45:47.000Z,50.417
2024-03-02T03:47:02.000Z,88.164
2024-03-02T03:48:17.000Z,69.391
2024-03-02T03:49:32.000Z,59.245
2024-03-02T03:50:48.000Z,139.16
2024-03-02T03:52:04.000Z,88.195
2024-03-02T03:53:20.000Z,103.363
2024-03-02T03:54:37.000Z,76.66
2024-03-02T03:55:52.000Z,86.325
2024-03-02T03:57:08.000Z,59.912
2024-03-02T03:58:23.000Z,80.622
2024-03-02T03:59:38.000Z,144.349
2024-03-02T04:00:54.000Z,85.854
2024-03-02T04:02:11.000Z,68.567
2024-03-02T04:03:27.000Z,70.9
2024-03-02T04:04:43.000Z,90.483
2024-03-02T04:05:58.000Z,64.66
2024-03-02T04:07:13.000Z,75.232
2024-03-02T04:08:28.000Z,96.61
2024-03-02T04:09:44.000Z,127.584
2024-03-02T04:11:01.000Z,64.965
2024-03-02T04:12:17.000Z,77.184
2024-03-02T04:13:33.000Z,104.997
2024-03-02T04:14:48.000Z,96.763
2024-03-02T04:16:03.000Z,69.673
2024-03-02T04:17:18.000Z,76.99
2024-03-02T04:18:34.000Z,65.763
2024-03-02T04:19:50.000Z,102.309
2024-03-02T04:21:06.000Z,122.911
2024-03-02T04:22:21.000Z,125.804
2024-03-02T04:23:37.000Z,112.95
2024-03-02T04:24:52.000Z,96.659
2024-03-02T04:26:07.000Z,114.975
2024-03-02T04:27:22.000Z,112.174
2024-03-02T04:28:39.000Z,99.304
2024-03-02T04:29:55.000Z,64.121
2024-03-02T04:31:10.000Z,96.216
2024-03-02T04:32:26.000Z,96.224
2024-03-02T04:33:41.000Z,108.95
2024-03-02T04:34:56.000Z,76.685
2024-03-02T04:36:12.000Z,143.702
2024-03-02T04:37:29.000Z,64.624
2024-03-02T04:38:45.000Z,126.586
2024-03-02T04:40:01.000Z,101.859
2024-03-02T04:41:16.000Z,83.404
2024-03-02T04:42:31.000Z,106.941
2024-03-02T04:43:47.000Z,54.065
2024-03-02T04:45:02.000Z,76.015
2024-03-02T04:46:20.000Z,79.881
2024-03-02T04:47:36.000Z,64.481
2024-03-02T04:48:52.000Z,121.933
2024-03-02T04:50:08.000Z,142.409
2024-03-02T04:51:23.000Z,65.48
2024-03-02T04:52:38.000Z,69.862
2024-03-02T04:53:53.000Z,102.396
2024-03-02T04:55:10.000Z,107.16
2024-03-02T04:56:27.000Z,91.782
2024-03-02T04:57:44.000Z,82.178
2024-03-02T04:58:59.000Z,122.73
2024-03-02T05:00:15.000Z,85.864
2024-03-02T05:01:30.000Z,99.563
2024-03-02T05:02:45.000Z,80.702
2024-03-02T05:04:00.000Z,48.846
2024-03-02T05:05:17.000Z,69.261
2024-03-02T05:06:33.000Z,90.971
2024-03-02T05:07:48.000Z,112.019
2024-03-02T05:09:04.000Z,103.755
2024-03-02T05:10:19.000Z,81.876
2024-03-02T05:11:35.000Z,102.193
2024-03-02T05:12:50.000Z,96.434
2024-03-02T05:14:07.000Z,148.76
2024-03-02T05:15:23.000Z,75.909
2024-03-02T05:16:38.000Z,111.709
2024-03-02T05:17:54.000Z,111.293
2024-03-02T05:19:10.000Z,100.758
2024-03-02T05:20:25.000Z,116.965
2024-03-02T05:21:40.000Z,44.087
2024-03-02T05:22:57.000Z,100.743
2024-03-02T05:24:14.000Z,55.439
2024-03-02T05:25:29.000Z,87.198
2024-03-02T05:26:45.000Z,122.816
2024-03-02T05:28:00.000Z,117.031
2024-03-02T05:29:16.000Z,75.259
2024-03-02T05:30:31.000Z,111.847
2024-03-02T05:31:47.000Z,86.767
2024-03-02T05:33:03.000Z,55.942
2024-03-02T05:34:19.000Z,127.307
2024-03-02T05:35:36.000Z,136.964
2024-03-02T05:36:51.000Z,50.002
2024-03-02T05:38:07.000Z,85.509
2024-03-02T05:39:22.000Z,98.543
2024-03-02T05:40:37.000Z,64.731
2024-03-02T05:41:53.000Z,64.149
2024-03-02T05:43:10.000Z,114.201
2024-03-02T05:44:26.000Z,90.561
2024-03-02T05:45:41.000Z,67.232
2024-03-02T05:46:57.000Z,97.232
2024-03-02T05:48:12.000Z,129.79
2024-03-02T05:49:28.000Z,112.986
2024-03-02T05:50:43.000Z,61.341
2024-03-02T05:51:58.000Z,45.42
2024-03-02T05:53:15.000Z,66.111
2024-03-02T05:54:32.000Z,117.567
2024-03-02T05:55:48.000Z,38.33
2024-03-02T05:57:03.000Z,121.646
2024-03-02T05:58:18.000Z,75.758
2024-03-02T05:59:33.000Z,70.924
2024-03-02T06:00:50.000Z,81.962
2024-03-02T06:02:07.000Z,80.22
2024-03-02T06:03:22.000Z,65.223
2024-03-02T06:04:37.000Z,76.13
2024-03-02T06:05:53.000Z,86.171
2024-03-02T06:07:08.000Z,95.808
2024-03-02T06:08:23.000Z,55.688
2024-03-02T06:09:39.000Z,60.637
2024-03-02T06:10:55.000Z,60.703
2024-03-02T06:12:12.000Z,48.685
2024-03-02T06:13:27.000Z,87.011
2024-03-02T06:14:42.000Z,27.988
2024-03-02T06:15:57.000Z,112.817
2024-03-02T06:17:13.000Z,74.96
2024-03-02T06:18:28.000Z,97.407
2024-03-02T06:19:45.000Z,102.578
2024-03-02T06:21:00.000Z,143.756
2024-03-02T06:22:16.000Z,93.076
2024-03-02T06:23:31.000Z,117.22
2024-03-02T06:24:46.000Z,91.483
2024-03-02T06:26:02.000Z,107.736
2024-03-02T06:27:18.000Z,80.638
2024-03-02T06:28:35.000Z,69.921
2024-03-02T06:29:51.000Z,123.569
2024-03-02T06:31:06.000Z,102.803
2024-03-02T06:32:22.000Z,101.638
2024-03-02T06:33:37.000Z,60.712
2024-03-02T06:34:52.000Z,102.581
2024-03-02T06:36:08.000Z,39.03
2024-03-02T06:37:25.000Z,54.55
2024-03-02T06:38:41.000Z,92.042
2024-03-02T06:39:57.000Z,107.079
2024-03-02T06:41:12.000Z,93.584
2024-03-02T06:42:27.000Z,91.415
2024-03-02T06:43:43.000Z,86.5
2024-03-02T06:44:58.000Z,146.192
2024-03-02T06:46:15.000Z,55.087
2024-03-02T06:47:31.000Z,61.379
2024-03-02T06:48:47.000Z,75.193
2024-03-02T06:50:02.000Z,90.208
2024-03-02T06:51:17.000Z,127.725
2024-03-02T06:52:33.000Z,122.106
2024-03-02T06:53:48.000Z,53.954
2024-03-02T06:55:05.000Z,71.241
2024-03-02T06:56:21.000Z,75.908
2024-03-02T06:57:36.000Z,65.046
2024-03-02T06:58:51.000Z,64.998
2024-03-02T07:00:07.000Z,119.34
2024-03-02T07:01:22.000Z,86.714
2024-03-02T07:02:37.000Z,138.739
2024-03-02T07:03:54.000Z,106.527
2024-03-02T07:05:11.000Z,59.804
2024-03-02T07:06:27.000Z,128.136
2024-03-02T07:07:42.000Z,101.48
2024-03-02T07:08:57.000Z,75.016
2024-03-02T07:10:12.000Z,93.488
2024-03-02T07:11:28.000Z,85.31
2024-03-02T07:12:44.000Z,70.452
2024-03-02T07:14:01.000Z,92.678
2024-03-02T07:15:17.000Z,97.543
2024-03-02T07:16:32.000Z,122.364
2024-03-02T07:17:47.000Z,65.016
2024-03-02T07:19:02.000Z,82.083
2024-03-02T07:20:17.000Z,71.297
2024-03-02T07:21:33.000Z,179.683
2024-03-02T07:22:50.000Z,123.792
2024-03-02T07:24:06.000Z,112.771
2024-03-02T07:25:22.000Z,102.156
2024-03-02T07:26:37.000Z,104.096
2024-03-02T07:27:53.000Z,90.88
2024-03-02T07:29:08.000Z,117.694
2024-03-02T07:30:23.000Z,85.259
2024-03-02T07:31:39.000Z,49.02
2024-03-02T07:32:56.000Z,87.783
2024-03-02T07:34:12.000Z,112.295
2024-03-02T07:35:27.000Z,59.343
2024-03-02T07:36:43.000Z,128.289
2024-03-02T07:37:58.000Z,87.235
2024-03-02T07:39:14.000Z,148.566
2024-03-02T07:40:29.000Z,77.351
2024-03-02T07:41:46.000Z,81.024
2024-03-02T07:43:02.000Z,80.724
2024-03-02T07:44:17.000Z,118.279
2024-03-02T07:45:33.000Z,54.503
2024-03-02T07:46:48.000Z,92.2
2024-03-02T07:48:03.000Z,108.84
2024-03-02T07:49:19.000Z,155.432
2024-03-02T07:50:36.000Z,107.285
2024-03-02T07:51:52.000Z,75.477
2024-03-02T07:53:09.000Z,83.678
2024-03-02T07:54:23.000Z,117.634
2024-03-02T07:55:39.000Z,101.059
2024-03-02T07:56:55.000Z,98.966
2024-03-02T07:58:11.000Z,90.347
2024-03-02T07:59:26.000Z,54.179
2024-03-02T08:00:41.000Z,143.366
2024-03-02T08:01:58.000Z,138.962
2024-03-02T08:03:14.000Z,90.828
2024-03-02T08:04:29.000Z,140.113
2024-03-02T08:05:45.000Z,107.74
2024-03-02T08:07:00.000Z,106.682
2024-03-02T08:08:16.000Z,60.073
2024-03-02T08:09:31.000Z,118.242
2024-03-02T08:10:47.000Z,101.562
2024-03-02T08:12:04.000Z,75.874
2024-03-02T08:13:20.000Z,75.758
2024-03-02T08:14:36.000Z,64.113
2024-03-02T08:15:51.000Z,121.837
2024-03-02T08:17:07.000Z,69.654
2024-03-02T08:18:22.000Z,76.588
2024-03-02T08:19:38.000Z,102.173
2024-03-02T08:20:54.000Z,48.685
2024-03-02T08:22:11.000Z,112.644
2024-03-02T08:23:26.000Z,120.859
2024-03-02T08:24:41.000Z,86.826
2024-03-02T08:25:58.000Z,81.452
2024-03-02T08:27:13.000Z,75.763
2024-03-02T08:28:28.000Z,106.71
2024-03-02T08:29:44.000Z,128.185
2024-03-02T08:31:00.000Z,64.678
2024-03-02T08:32:17.000Z,75.375
2024-03-02T08:33:33.000Z,100.186
2024-03-02T08:34:48.000Z,89.065
2024-03-02T08:36:03.000Z,69.673
2024-03-02T08:37:19.000Z,80.239
2024-03-02T08:38:35.000Z,85.513
2024-03-02T08:39:50.000Z,106.261
2024-03-02T08:41:07.000Z,65.05
2024-03-02T08:42:23.000Z,460.771
2024-03-02T08:43:38.000Z,60.088
2024-03-02T08:44:54.000Z,103.379
2024-03-02T08:46:09.000Z,55.617
2024-03-02T08:47:24.000Z,33.804
2024-03-02T08:48:40.000Z,79.932
2024-03-02T08:49:57.000Z,110.763
2024-03-02T08:51:13.000Z,54.315
2024-03-02T08:52:28.000Z,92.182
2024-03-02T08:53:43.000Z,82.418
2024-03-02T08:54:59.000Z,97.444
2024-03-02T08:56:14.000Z,102.092
2024-03-02T08:57:30.000Z,101.46
2024-03-02T08:58:46.000Z,59.105
2024-03-02T09:00:02.000Z,87.396
2024-03-02T09:01:18.000Z,49.531
2024-03-02T09:02:34.000Z,80.717
2024-03-02T09:03:48.000Z,70.097
2024-03-02T09:05:04.000Z,121.312
2024-03-02T09:06:19.000Z,80.619
2024-03-02T09:07:36.000Z,50.67
2024-03-02T09:08:52.000Z,75.375
2024-03-02T09:10:07.000Z,54.289
2024-03-02T09:11:22.000Z,76.42
2024-03-02T09:12:38.000Z,127.847
2024-03-02T09:13:53.000Z,81.008
2024-03-02T09:15:09.000Z,79.824
2024-03-02T09:16:25.000Z,60.704
2024-03-02T09:17:41.000Z,49.969
2024-03-02T09:18:56.000Z,49.102
2024-03-02T09:20:12.000Z,56.105
2024-03-02T09:21:27.000Z,69.838
2024-03-02T09:22:42.000Z,61.206
2024-03-02T09:23:58.000Z,86.457
2024-03-02T09:25:15.000Z,49.277
2024-03-02T09:26:31.000Z,74.846
2024-03-02T09:27:46.000Z,97.131
2024-03-02T09:29:02.000Z,44.246
2024-03-02T09:30:17.000Z,74.967
2024-03-02T09:31:32.000Z,86.768
2024-03-02T09:32:48.000Z,48.518
2024-03-02T09:34:04.000Z,80.239
2024-03-02T09:35:21.000Z,69.763
2024-03-02T09:36:37.000Z,48.659
2024-03-02T09:37:52.000Z,84.391
2024-03-02T09:39:07.000Z,60.631
2024-03-02T09:40:22.000Z,112.164
2024-03-02T09:41:38.000Z,49.649
2024-03-02T09:42:54.000Z,75.735
2024-03-02T09:44:11.000Z,38.822
2024-03-02T09:45:27.000Z,71.071
2024-03-02T09:46:42.000Z,65.197
2024-03-02T09:47:57.000Z,54.864
2024-03-02T09:49:13.000Z,69.344
2024-03-02T09:50:28.000Z,64.936
2024-03-02T09:51:45.000Z,54.934
2024-03-02T09:53:01.000Z,39.069
2024-03-02T09:54:17.000Z,27.988
2024-03-02T09:55:32.000Z,75.19
2024-03-02T09:56:47.000Z,76.607
2024-03-02T09:58:02.000Z,80.639
2024-03-02T09:59:17.000Z,83.594
2024-03-02T10:00:34.000Z,68.567
2024-03-02T10:01:49.000Z,55.609
2024-03-02T10:03:05.000Z,60.093
2024-03-02T10:04:20.000Z,54.375
2024-03-02T10:05:36.000Z,55.452
2024-03-02T10:06:51.000Z,97.611
2024-03-02T10:08:06.000Z,28.395
2024-03-02T10:09:23.000Z,49.531
2024-03-02T10:10:39.000Z,33.483
2024-03-02T10:11:55.000Z,43.326
2024-03-02T10:13:11.000Z,54.715
2024-03-02T10:14:26.000Z,102.527
2024-03-02T10:15:41.000Z,53.642
2024-03-02T10:16:56.000Z,65.239
2024-03-02T10:18:13.000Z,44.513
2024-03-02T10:19:29.000Z,44.088
2024-03-02T10:20:46.000Z,54.902
2024-03-02T10:22:01.000Z,77.013
2024-03-02T10:23:17.000Z,85.951
2024-03-02T10:24:32.000Z,48.643
2024-03-02T10:25:47.000Z,86.485
2024-03-02T10:27:02.000Z,70.768
2024-03-02T10:28:19.000Z,49.035
2024-03-02T10:29:35.000Z,70.902
2024-03-02T10:30:51.000Z,80.151
2024-03-02T10:32:06.000Z,38.985
2024-03-02T10:33:21.000Z,59.288
2024-03-02T10:34:36.000Z,44.129
2024-03-02T10:35:52.000Z,38.775
2024-03-02T10:37:08.000Z,81.035
2024-03-02T10:38:25.000Z,22.812
2024-03-02T10:39:40.000Z,39.253
2024-03-02T10:40:56.000Z,85.54
2024-03-02T10:42:11.000Z,54.384
2024-03-02T10:43:26.000Z,80.655
2024-03-02T10:44:42.000Z,91.724
2024-03-02T10:45:58.000Z,49.449
2024-03-02T10:47:15.000Z,121.529
2024-03-02T10:48:31.000Z,33.866
2024-03-02T10:49:46.000Z,91.282
2024-03-02T10:51:01.000Z,55.549
2024-03-02T10:52:17.000Z,39.213
2024-03-02T10:53:32.000Z,38.822
2024-03-02T10:54:48.000Z,43.675
2024-03-02T10:56:04.000Z,76.078
2024-03-02T10:57:20.000Z,84.391
2024-03-02T10:58:36.000Z,195.153
2024-03-02T10:59:51.000Z,305.916
2024-03-02T11:01:07.000Z,205.702
2024-03-02T11:02:22.000Z,295.367
2024-03-02T11:03:37.000Z,400.856
2024-03-02T11:04:53.000Z,543.265
2024-03-02T11:06:10.000Z,643.479
2024-03-02T11:07:27.000Z,495.795
2024-03-02T11:08:43.000Z,395.581
2024-03-02T11:09:58.000Z,137.135
2024-03-02T11:11:14.000Z,34.099
2024-03-02T11:12:29.000Z,333.7
2024-03-02T11:13:44.000Z,49.035
2024-03-02T11:15:01.000Z,54.611
2024-03-02T11:16:17.000Z,38.181
2024-03-02T11:17:33.000Z,69.466
2024-03-02T11:18:49.000Z,49.46
2024-03-02T11:20:04.000Z,49.035
2024-03-02T11:21:19.000Z,28.282
2024-03-02T11:22:34.000Z,82.148
2024-03-02T11:23:51.000Z,50.418
2024-03-02T11:25:07.000Z,49.475
2024-03-02T11:26:23.000Z,56.526
2024-03-02T11:27:39.000Z,39.194
2024-03-02T11:28:55.000Z,64.222
2024-03-02T11:30:10.000Z,60.534
2024-03-02T11:31:25.000Z,39.214
2024-03-02T11:32:41.000Z,27.988
2024-03-02T11:33:58.000Z,38.33
2024-03-02T11:35:14.000Z,90.603
2024-03-02T11:36:30.000Z,312.941
2024-03-02T11:37:46.000Z,69.719
2024-03-02T11:39:02.000Z,34.099
2024-03-02T11:40:17.000Z,89.665
2024-03-02T11:41:32.000Z,295.367
2024-03-02T11:42:48.000Z,733.144
2024-03-02T11:44:04.000Z,759.516
2024-03-02T11:45:20.000Z,764.791
2024-03-02T11:46:36.000Z,1466.288
2024-03-02T11:47:51.000Z,1999.004
2024-03-02T11:49:07.000Z,1814.4
2024-03-02T11:50:22.000Z,1503.209
2024-03-02T11:51:37.000Z,1323.879
2024-03-02T11:52:53.000Z,1408.27
2024-03-02T11:54:10.000Z,1265.86
2024-03-02T11:55:25.000Z,1075.981
2024-03-02T11:56:41.000Z,1234.214
2024-03-02T11:57:56.000Z,1139.274
2024-03-02T11:59:12.000Z,1582.325
2024-03-02T12:00:27.000Z,2115.042
2024-03-02T12:01:43.000Z,3133.004
2024-03-02T12:03:00.000Z,3971.637
2024-03-02T12:04:15.000Z,3961.088
2024-03-02T12:05:31.000Z,3438.92
2024-03-02T12:06:46.000Z,3032.79
2024-03-02T12:08:01.000Z,2605.562
2024-03-02T12:09:16.000Z,1471.563
2024-03-02T12:10:33.000Z,870.279
2024-03-02T12:11:49.000Z,664.577
2024-03-02T12:13:05.000Z,469.423
2024-03-02T12:14:20.000Z,437.777
2024-03-02T12:15:35.000Z,427.228
2024-03-02T12:16:51.000Z,485.246
2024-03-02T12:18:07.000Z,585.46
2024-03-02T12:19:23.000Z,569.637
2024-03-02T12:20:39.000Z,743.693
2024-03-02T12:21:55.000Z,838.632
2024-03-02T12:23:10.000Z,959.944
2024-03-02T12:24:25.000Z,780.614
2024-03-02T12:25:40.000Z,706.772
2024-03-02T12:26:56.000Z,928.298
2024-03-02T12:28:13.000Z,901.925
2024-03-02T12:29:29.000Z,754.242
2024-03-02T12:30:45.000Z,791.163
2024-03-02T12:32:00.000Z,596.009
2024-03-02T12:33:15.000Z,453.6
2024-03-02T12:34:31.000Z,363.935
2024-03-02T12:35:46.000Z,321.74
2024-03-02T12:37:02.000Z,279.544
2024-03-02T12:38:18.000Z,390.307
2024-03-02T12:39:34.000Z,321.74
2024-03-02T12:40:50.000Z,290.093
2024-03-02T12:42:05.000Z,416.679
2024-03-02T12:43:21.000Z,274.27
2024-03-02T12:44:36.000Z,311.191
2024-03-02T12:45:52.000Z,142.409
2024-03-02T12:47:08.000Z,131.86
2024-03-02T12:48:25.000Z,163.507
2024-03-02T12:49:41.000Z,100.214
2024-03-02T12:50:56.000Z,101.362
2024-03-02T12:52:11.000Z,33.081
2024-03-02T12:53:26.000Z,116.037
2024-03-02T12:54:41.000Z,69.723
2024-03-02T12:55:57.000Z,89.665
2024-03-02T12:57:14.000Z,58.833
2024-03-02T12:58:30.000Z,74.608
2024-03-02T12:59:45.000Z,96.157
2024-03-02T13:01:00.000Z,80.204
2024-03-02T13:02:16.000Z,89.665
2024-03-02T13:03:32.000Z,48.518
2024-03-02T13:04:47.000Z,59.022
2024-03-02T13:06:03.000Z,64.686
2024-03-02T13:07:19.000Z,68.567
2024-03-02T13:08:34.000Z,358.66
2024-03-02T13:09:50.000Z,55.235
2024-03-02T13:11:05.000Z,59.006
2024-03-02T13:12:20.000Z,59.254
2024-03-02T13:13:36.000Z,90.295
2024-03-02T13:14:52.000Z,75.106
2024-03-02T13:16:08.000Z,69.87
2024-03-02T13:17:24.000Z,59.669
2024-03-02T13:18:39.000Z,53.954
2024-03-02T13:19:55.000Z,59.24
2024-03-02T13:21:10.000Z,106.918
2024-03-02T13:22:25.000Z,126.586
2024-03-02T13:23:42.000Z,174.056
2024-03-02T13:24:58.000Z,179.33
2024-03-02T13:26:14.000Z,152.958
2024-03-02T13:27:29.000Z,232.074
2024-03-02T13:28:45.000Z,168.781
2024-03-02T13:30:00.000Z,200.428
2024-03-02T13:31:15.000Z,189.879
2024-03-02T13:32:31.000Z,163.507
2024-03-02T13:33:47.000Z,221.526
2024-03-02T13:35:04.000Z,268.995
2024-03-02T13:36:19.000Z,247.898
2024-03-02T13:37:35.000Z,221.526
2024-03-02T13:38:50.000Z,316.465
2024-03-02T13:40:05.000Z,253.172
2024-03-02T13:41:21.000Z,290.093
2024-03-02T13:42:38.000Z,205.702
2024-03-02T13:43:54.000Z,158.233
2024-03-02T13:45:10.000Z,116.037
2024-03-02T13:46:25.000Z,64.327
2024-03-02T13:47:40.000Z,69.642
2024-03-02T13:48:56.000Z,80.034
2024-03-02T13:50:11.000Z,49.449
2024-03-02T13:51:27.000Z,48.983
2024-03-02T13:52:44.000Z,39.214
2024-03-02T13:53:59.000Z,28.515
2024-03-02T13:55:15.000Z,49.074
2024-03-02T13:56:30.000Z,55.188
2024-03-02T13:57:45.000Z,59.404
2024-03-02T13:59:00.000Z,53.786
2024-03-02T14:00:16.000Z,43.514
2024-03-02T14:01:33.000Z,65.324
2024-03-02T14:02:49.000Z,33.081
2024-03-02T14:04:05.000Z,39.416
2024-03-02T14:05:20.000Z,28.282
2024-03-02T14:06:35.000Z,67.022
2024-03-02T14:07:51.000Z,43.896
2024-03-02T14:09:06.000Z,65.668
2024-03-02T14:10:23.000Z,48.99
2024-03-02T14:11:39.000Z,54.037
2024-03-02T14:12:54.000Z,137.135
2024-03-02T14:14:09.000Z,121.312
2024-03-02T14:15:25.000Z,152.958
2024-03-02T14:16:40.000Z,152.958
2024-03-02T14:17:56.000Z,189.879
2024-03-02T14:19:13.000Z,210.977
2024-03-02T14:20:29.000Z,437.777
2024-03-02T14:21:45.000Z,358.66
2024-03-02T14:23:00.000Z,327.014
2024-03-02T14:24:15.000Z,268.995
2024-03-02T14:25:31.000Z,174.056
2024-03-02T14:26:46.000Z,189.879
2024-03-02T14:28:03.000Z,174.056
2024-03-02T14:29:20.000Z,110.763
2024-03-02T14:30:36.000Z,60.338
2024-03-02T14:31:51.000Z,71.224
2024-03-02T14:33:06.000Z,101.424
2024-03-02T14:34:21.000Z,69.878
2024-03-02T14:35:37.000Z,80.699
2024-03-02T14:36:53.000Z,79.116
2024-03-02T14:38:11.000Z,38.751
2024-03-02T14:39:26.000Z,53.642
2024-03-02T14:40:42.000Z,94.94
2024-03-02T14:41:57.000Z,126.586
2024-03-02T14:43:12.000Z,105.488
2024-03-02T14:44:28.000Z,131.86
2024-03-02T14:45:43.000Z,63.293
2024-03-02T14:47:00.000Z,73.842
2024-03-02T14:48:17.000Z,94.94
2024-03-02T14:49:33.000Z,105.488
2024-03-02T14:50:48.000Z,375.443
2024-03-02T14:52:03.000Z,43.326
2024-03-02T14:53:18.000Z,54.323
2024-03-02T14:54:34.000Z,51.016
2024-03-02T14:55:49.000Z,43.908
2024-03-02T14:57:05.000Z,27.988
2024-03-02T14:58:22.000Z,64.166
2024-03-02T14:59:38.000Z,27.988
2024-03-02T15:00:53.000Z,50.179
2024-03-02T15:02:08.000Z,27.988
2024-03-02T15:03:24.000Z,54.55
2024-03-02T15:04:39.000Z,53.975
2024-03-02T15:05:56.000Z,43.537
2024-03-02T15:07:12.000Z,38.539
2024-03-02T15:08:28.000Z,61.219
2024-03-02T15:09:44.000Z,33.081
2024-03-02T15:10:59.000Z,38.808
2024-03-02T15:12:15.000Z,50.324
2024-03-02T15:13:30.000Z,44.581
2024-03-02T15:14:47.000Z,48.735
2024-03-02T15:16:03.000Z,44.678
2024-03-02T15:17:19.000Z,54.009
2024-03-02T15:18:34.000Z,38.808
2024-03-02T15:19:50.000Z,49.277
2024-03-02T15:21:05.000Z,43.537
2024-03-02T15:22:21.000Z,60.342
2024-03-02T15:23:36.000Z,48.629
2024-03-02T15:24:53.000Z,33.998
2024-03-02T15:26:09.000Z,49.102
2024-03-02T15:27:25.000Z,27.988
2024-03-02T15:28:40.000Z,59.423
2024-03-02T15:29:55.000Z,48.474
2024-03-02T15:31:10.000Z,44.287
2024-03-02T15:32:26.000Z,28.515
2024-03-02T15:33:43.000Z,75.729
2024-03-02T15:34:59.000Z,59.428
2024-03-02T15:36:15.000Z,44.163
2024-03-02T15:37:30.000Z,44.441